sensor_id;sensor_type;location;lat;lon;timestamp;P1;durP1;ratioP1;P2;durP2;ratioP2
65047;SDS011;52089;51.362;-2.384;2022-12-19T00:00:17;4.53;;;0.40;;
65047;SDS011;52089;51.362;-2.384;2022-12-19T00:04:02;2.17;;;0.47;;
65047;SDS011;52089;51.362;-2.384;2022-12-19T00:07:49;1.40;;;0.30;;
65047;SDS011;52089;51.362;-2.384;2022-12-19T00:11:35;3.07;;;0.40;;
65047;SDS011;52089;51.362;-2.384;2022-12-19T00:15:19;1.30;;;0.40;;
65047;SDS011;52089;51.362;-2.384;2022-12-19T00:19:03;2.37;;;0.57;;
65047;SDS011;52089;51.362;-2.384;2022-12-19T00:22:45;4.90;;;0.80;;
65047;SDS011;52089;51.362;-2.384;2022-12-19T00:26:30;6.83;;;1.17;;
65047;SDS011;52089;51.362;-2.384;2022-12-19T00:30:14;4.73;;;0.87;;
65047;SDS011;52089;51.362;-2.384;2022-12-19T00:33:56;3.87;;;0.70;;
65047;SDS011;52089;51.362;-2.384;2022-12-19T00:37:38;8.20;;;1.37;;
65047;SDS011;52089;51.362;-2.384;2022-12-19T00:41:30;8.43;;;0.90;;
65047;SDS011;52089;51.362;-2.384;2022-12-19T00:45:14;4.43;;;0.60;;
65047;SDS011;52089;51.362;-2.384;2022-12-19T00:48:56;4.07;;;0.60;;
65047;SDS011;52089;51.362;-2.384;2022-12-19T00:52:38;5.10;;;0.70;;
65047;SDS011;52089;51.362;-2.384;2022-12-19T00:56:23;5.10;;;0.90;;
65047;SDS011;52089;51.362;-2.384;2022-12-19T01:00:10;7.73;;;1.33;;
65047;SDS011;52089;51.362;-2.384;2022-12-19T01:03:52;6.40;;;0.90;;
65047;SDS011;52089;51.362;-2.384;2022-12-19T01:07:54;9.90;;;1.47;;
65047;SDS011;52089;51.362;-2.384;2022-12-19T01:11:36;9.20;;;1.40;;
65047;SDS011;52089;51.362;-2.384;2022-12-19T01:15:38;7.72;;;1.10;;
65047;SDS011;52089;51.362;-2.384;2022-12-19T01:19:21;8.73;;;1.70;;
65047;SDS011;52089;51.362;-2.384;2022-12-19T01:23:03;8.57;;;1.87;;
65047;SDS011;52089;51.362;-2.384;2022-12-19T01:26:45;9.07;;;1.33;;
65047;SDS011;52089;51.362;-2.384;2022-12-19T01:34:26;7.37;;;1.17;;
65047;SDS011;52089;51.362;-2.384;2022-12-19T01:38:18;5.43;;;1.10;;
65047;SDS011;52089;51.362;-2.384;2022-12-19T01:42:00;7.60;;;1.73;;
65047;SDS011;52089;51.362;-2.384;2022-12-19T01:45:42;9.47;;;1.10;;
65047;SDS011;52089;51.362;-2.384;2022-12-19T01:49:35;7.80;;;0.90;;
65047;SDS011;52089;51.362;-2.384;2022-12-19T01:53:18;6.37;;;1.40;;
65047;SDS011;52089;51.362;-2.384;2022-12-19T01:57:02;6.17;;;1.20;;
65047;SDS011;52089;51.362;-2.384;2022-12-19T02:00:46;6.33;;;1.30;;
65047;SDS011;52089;51.362;-2.384;2022-12-19T02:04:28;7.87;;;1.30;;
65047;SDS011;52089;51.362;-2.384;2022-12-19T02:08:12;9.53;;;1.40;;
65047;SDS011;52089;51.362;-2.384;2022-12-19T02:11:55;11.73;;;3.00;;
65047;SDS011;52089;51.362;-2.384;2022-12-19T02:19:47;10.93;;;1.80;;
65047;SDS011;52089;51.362;-2.384;2022-12-19T02:31:53;24.37;;;3.63;;
65047;SDS011;52089;51.362;-2.384;2022-12-19T02:35:43;23.23;;;4.03;;
65047;SDS011;52089;51.362;-2.384;2022-12-19T02:43:46;21.80;;;3.80;;
65047;SDS011;52089;51.362;-2.384;2022-12-19T02:47:38;29.33;;;4.23;;
65047;SDS011;52089;51.362;-2.384;2022-12-19T02:51:21;33.83;;;5.27;;
65047;SDS011;52089;51.362;-2.384;2022-12-19T02:55:07;36.23;;;5.67;;
65047;SDS011;52089;51.362;-2.384;2022-12-19T03:03:10;26.02;;;4.68;;
65047;SDS011;52089;51.362;-2.384;2022-12-19T03:07:34;27.13;;;4.83;;
65047;SDS011;52089;51.362;-2.384;2022-12-19T03:11:24;22.60;;;3.87;;
65047;SDS011;52089;51.362;-2.384;2022-12-19T03:15:13;13.20;;;2.73;;
65047;SDS011;52089;51.362;-2.384;2022-12-19T03:18:55;13.13;;;2.03;;
65047;SDS011;52089;51.362;-2.384;2022-12-19T03:22:38;10.17;;;1.40;;
65047;SDS011;52089;51.362;-2.384;2022-12-19T03:26:21;9.83;;;1.80;;
65047;SDS011;52089;51.362;-2.384;2022-12-19T03:30:06;5.77;;;1.20;;
65047;SDS011;52089;51.362;-2.384;2022-12-19T03:33:53;6.63;;;1.50;;
65047;SDS011;52089;51.362;-2.384;2022-12-19T03:37:39;4.60;;;0.90;;
65047;SDS011;52089;51.362;-2.384;2022-12-19T03:41:23;9.07;;;1.50;;
65047;SDS011;52089;51.362;-2.384;2022-12-19T03:45:27;8.53;;;0.80;;
65047;SDS011;52089;51.362;-2.384;2022-12-19T03:49:24;6.07;;;0.73;;
65047;SDS011;52089;51.362;-2.384;2022-12-19T03:57:11;5.77;;;1.00;;
65047;SDS011;52089;51.362;-2.384;2022-12-19T04:01:04;5.17;;;0.90;;
65047;SDS011;52089;51.362;-2.384;2022-12-19T04:04:51;5.97;;;1.60;;
65047;SDS011;52089;51.362;-2.384;2022-12-19T04:08:36;9.07;;;1.67;;
65047;SDS011;52089;51.362;-2.384;2022-12-19T04:12:20;10.53;;;1.40;;
65047;SDS011;52089;51.362;-2.384;2022-12-19T04:16:13;5.03;;;0.80;;
65047;SDS011;52089;51.362;-2.384;2022-12-19T04:20:12;6.13;;;1.15;;
65047;SDS011;52089;51.362;-2.384;2022-12-19T04:23:59;9.77;;;1.40;;
65047;SDS011;52089;51.362;-2.384;2022-12-19T04:27:49;5.07;;;0.90;;
65047;SDS011;52089;51.362;-2.384;2022-12-19T04:32:05;4.20;;;1.00;;
65047;SDS011;52089;51.362;-2.384;2022-12-19T04:35:50;4.13;;;0.80;;
65047;SDS011;52089;51.362;-2.384;2022-12-19T04:39:32;4.70;;;0.93;;
65047;SDS011;52089;51.362;-2.384;2022-12-19T04:43:13;6.13;;;1.03;;
65047;SDS011;52089;51.362;-2.384;2022-12-19T04:46:55;3.07;;;0.67;;
65047;SDS011;52089;51.362;-2.384;2022-12-19T04:50:37;4.73;;;0.90;;
65047;SDS011;52089;51.362;-2.384;2022-12-19T04:54:20;4.87;;;0.83;;
65047;SDS011;52089;51.362;-2.384;2022-12-19T04:58:05;5.63;;;0.80;;
65047;SDS011;52089;51.362;-2.384;2022-12-19T05:01:47;3.60;;;1.00;;
65047;SDS011;52089;51.362;-2.384;2022-12-19T05:05:29;3.30;;;0.87;;
65047;SDS011;52089;51.362;-2.384;2022-12-19T05:09:11;7.03;;;1.30;;
65047;SDS011;52089;51.362;-2.384;2022-12-19T05:12:53;7.23;;;1.43;;
65047;SDS011;52089;51.362;-2.384;2022-12-19T05:16:35;6.17;;;1.60;;
65047;SDS011;52089;51.362;-2.384;2022-12-19T05:20:17;7.63;;;1.70;;
65047;SDS011;52089;51.362;-2.384;2022-12-19T05:23:58;13.60;;;2.40;;
65047;SDS011;52089;51.362;-2.384;2022-12-19T05:27:40;14.37;;;2.43;;
65047;SDS011;52089;51.362;-2.384;2022-12-19T05:31:22;14.13;;;2.40;;
65047;SDS011;52089;51.362;-2.384;2022-12-19T05:35:05;10.97;;;2.10;;
65047;SDS011;52089;51.362;-2.384;2022-12-19T05:38:48;12.27;;;2.63;;
65047;SDS011;52089;51.362;-2.384;2022-12-19T05:42:30;11.37;;;2.47;;
65047;SDS011;52089;51.362;-2.384;2022-12-19T05:46:12;10.40;;;2.10;;
65047;SDS011;52089;51.362;-2.384;2022-12-19T05:49:53;19.63;;;2.73;;
65047;SDS011;52089;51.362;-2.384;2022-12-19T05:53:36;16.50;;;2.37;;
65047;SDS011;52089;51.362;-2.384;2022-12-19T05:57:19;14.60;;;2.60;;
65047;SDS011;52089;51.362;-2.384;2022-12-19T06:01:01;13.13;;;2.57;;
65047;SDS011;52089;51.362;-2.384;2022-12-19T06:04:48;15.23;;;2.53;;
65047;SDS011;52089;51.362;-2.384;2022-12-19T06:08:30;14.67;;;2.20;;
65047;SDS011;52089;51.362;-2.384;2022-12-19T06:12:12;12.13;;;2.30;;
65047;SDS011;52089;51.362;-2.384;2022-12-19T06:16:05;17.60;;;4.13;;
65047;SDS011;52089;51.362;-2.384;2022-12-19T06:19:53;12.60;;;2.20;;
65047;SDS011;52089;51.362;-2.384;2022-12-19T06:23:35;13.17;;;2.40;;
65047;SDS011;52089;51.362;-2.384;2022-12-19T06:27:17;15.27;;;2.43;;
65047;SDS011;52089;51.362;-2.384;2022-12-19T06:31:00;14.60;;;2.03;;
65047;SDS011;52089;51.362;-2.384;2022-12-19T06:34:43;12.07;;;2.07;;
65047;SDS011;52089;51.362;-2.384;2022-12-19T06:38:44;9.80;;;1.88;;
65047;SDS011;52089;51.362;-2.384;2022-12-19T06:42:26;11.93;;;3.00;;
65047;SDS011;52089;51.362;-2.384;2022-12-19T06:46:07;10.97;;;2.83;;
65047;SDS011;52089;51.362;-2.384;2022-12-19T06:49:50;11.30;;;2.30;;
65047;SDS011;52089;51.362;-2.384;2022-12-19T06:53:32;10.87;;;2.40;;
65047;SDS011;52089;51.362;-2.384;2022-12-19T06:57:13;12.90;;;1.97;;
65047;SDS011;52089;51.362;-2.384;2022-12-19T07:00:55;12.30;;;2.17;;
65047;SDS011;52089;51.362;-2.384;2022-12-19T07:04:38;9.00;;;1.97;;
65047;SDS011;52089;51.362;-2.384;2022-12-19T07:08:25;9.83;;;1.90;;
65047;SDS011;52089;51.362;-2.384;2022-12-19T07:12:07;7.77;;;1.93;;
65047;SDS011;52089;51.362;-2.384;2022-12-19T07:15:50;21.50;;;2.40;;
65047;SDS011;52089;51.362;-2.384;2022-12-19T07:19:33;11.93;;;2.43;;
65047;SDS011;52089;51.362;-2.384;2022-12-19T07:23:16;12.17;;;2.27;;
65047;SDS011;52089;51.362;-2.384;2022-12-19T07:27:00;13.20;;;2.60;;
65047;SDS011;52089;51.362;-2.384;2022-12-19T07:30:42;20.00;;;2.90;;
65047;SDS011;52089;51.362;-2.384;2022-12-19T07:34:25;14.80;;;2.93;;
65047;SDS011;52089;51.362;-2.384;2022-12-19T07:38:07;16.17;;;2.87;;
65047;SDS011;52089;51.362;-2.384;2022-12-19T07:41:49;13.07;;;2.10;;
65047;SDS011;52089;51.362;-2.384;2022-12-19T07:45:31;12.80;;;2.37;;
65047;SDS011;52089;51.362;-2.384;2022-12-19T07:49:13;12.50;;;2.13;;
65047;SDS011;52089;51.362;-2.384;2022-12-19T07:53:02;12.47;;;2.13;;
65047;SDS011;52089;51.362;-2.384;2022-12-19T07:56:44;9.63;;;2.10;;
65047;SDS011;52089;51.362;-2.384;2022-12-19T08:00:26;10.03;;;2.50;;
65047;SDS011;52089;51.362;-2.384;2022-12-19T08:04:08;8.87;;;2.13;;
65047;SDS011;52089;51.362;-2.384;2022-12-19T08:07:50;8.13;;;1.87;;
65047;SDS011;52089;51.362;-2.384;2022-12-19T08:11:32;14.33;;;3.23;;
65047;SDS011;52089;51.362;-2.384;2022-12-19T08:15:14;19.33;;;3.63;;
65047;SDS011;52089;51.362;-2.384;2022-12-19T08:18:56;16.23;;;3.40;;
65047;SDS011;52089;51.362;-2.384;2022-12-19T08:22:38;16.90;;;2.87;;
65047;SDS011;52089;51.362;-2.384;2022-12-19T08:26:20;13.87;;;2.93;;
65047;SDS011;52089;51.362;-2.384;2022-12-19T08:30:05;14.60;;;2.43;;
65047;SDS011;52089;51.362;-2.384;2022-12-19T08:33:49;15.43;;;2.20;;
65047;SDS011;52089;51.362;-2.384;2022-12-19T08:37:32;8.50;;;2.00;;
65047;SDS011;52089;51.362;-2.384;2022-12-19T08:41:15;12.93;;;2.30;;
65047;SDS011;52089;51.362;-2.384;2022-12-19T08:44:57;14.83;;;2.20;;
65047;SDS011;52089;51.362;-2.384;2022-12-19T08:48:39;12.50;;;2.20;;
65047;SDS011;52089;51.362;-2.384;2022-12-19T08:52:21;10.00;;;2.27;;
65047;SDS011;52089;51.362;-2.384;2022-12-19T08:56:04;8.53;;;1.60;;
65047;SDS011;52089;51.362;-2.384;2022-12-19T08:59:47;6.60;;;1.60;;
65047;SDS011;52089;51.362;-2.384;2022-12-19T09:03:31;7.40;;;1.37;;
65047;SDS011;52089;51.362;-2.384;2022-12-19T09:07:33;9.17;;;1.30;;
65047;SDS011;52089;51.362;-2.384;2022-12-19T09:11:19;7.67;;;1.20;;
65047;SDS011;52089;51.362;-2.384;2022-12-19T09:15:01;5.57;;;1.00;;
65047;SDS011;52089;51.362;-2.384;2022-12-19T09:18:43;5.23;;;0.97;;
65047;SDS011;52089;51.362;-2.384;2022-12-19T09:22:29;6.17;;;0.80;;
65047;SDS011;52089;51.362;-2.384;2022-12-19T09:26:11;6.63;;;0.93;;
65047;SDS011;52089;51.362;-2.384;2022-12-19T09:29:53;7.83;;;0.63;;
65047;SDS011;52089;51.362;-2.384;2022-12-19T09:33:35;3.43;;;0.77;;
65047;SDS011;52089;51.362;-2.384;2022-12-19T09:37:24;4.83;;;0.80;;
65047;SDS011;52089;51.362;-2.384;2022-12-19T09:48:51;9.23;;;1.30;;
65047;SDS011;52089;51.362;-2.384;2022-12-19T09:52:39;6.63;;;1.10;;
65047;SDS011;52089;51.362;-2.384;2022-12-19T09:56:28;11.27;;;1.73;;
65047;SDS011;52089;51.362;-2.384;2022-12-19T10:00:28;12.00;;;1.77;;
65047;SDS011;52089;51.362;-2.384;2022-12-19T10:04:41;12.87;;;2.07;;
65047;SDS011;52089;51.362;-2.384;2022-12-19T10:08:39;14.30;;;1.97;;
65047;SDS011;52089;51.362;-2.384;2022-12-19T10:21:05;21.83;;;3.40;;
65047;SDS011;52089;51.362;-2.384;2022-12-19T10:36:44;15.47;;;2.73;;
65047;SDS011;52089;51.362;-2.384;2022-12-19T10:40:50;14.33;;;2.60;;
65047;SDS011;52089;51.362;-2.384;2022-12-19T10:44:36;17.17;;;3.17;;
65047;SDS011;52089;51.362;-2.384;2022-12-19T10:48:21;14.73;;;2.57;;
65047;SDS011;52089;51.362;-2.384;2022-12-19T10:52:11;16.13;;;2.80;;
65047;SDS011;52089;51.362;-2.384;2022-12-19T10:55:54;20.93;;;3.10;;
65047;SDS011;52089;51.362;-2.384;2022-12-19T10:59:41;18.33;;;2.50;;
65047;SDS011;52089;51.362;-2.384;2022-12-19T11:11:50;19.67;;;2.77;;
65047;SDS011;52089;51.362;-2.384;2022-12-19T11:15:58;20.93;;;2.70;;
65047;SDS011;52089;51.362;-2.384;2022-12-19T11:20:11;23.37;;;2.90;;
65047;SDS011;52089;51.362;-2.384;2022-12-19T11:24:27;19.57;;;3.30;;
65047;SDS011;52089;51.362;-2.384;2022-12-19T11:28:50;15.43;;;2.83;;
65047;SDS011;52089;51.362;-2.384;2022-12-19T11:36:56;20.47;;;3.63;;
65047;SDS011;52089;51.362;-2.384;2022-12-19T11:40:58;13.80;;;2.10;;
65047;SDS011;52089;51.362;-2.384;2022-12-19T11:44:52;11.77;;;2.00;;
65047;SDS011;52089;51.362;-2.384;2022-12-19T11:53:09;9.80;;;1.90;;
65047;SDS011;52089;51.362;-2.384;2022-12-19T11:56:59;6.50;;;1.30;;
65047;SDS011;52089;51.362;-2.384;2022-12-19T12:00:48;9.60;;;1.77;;
65047;SDS011;52089;51.362;-2.384;2022-12-19T12:04:37;13.33;;;1.90;;
65047;SDS011;52089;51.362;-2.384;2022-12-19T12:08:40;9.97;;;1.63;;
65047;SDS011;52089;51.362;-2.384;2022-12-19T12:13:08;14.38;;;2.25;;
65047;SDS011;52089;51.362;-2.384;2022-12-19T12:22:12;13.07;;;1.87;;
65047;SDS011;52089;51.362;-2.384;2022-12-19T12:26:46;11.23;;;1.33;;
65047;SDS011;52089;51.362;-2.384;2022-12-19T12:31:01;9.73;;;1.60;;
65047;SDS011;52089;51.362;-2.384;2022-12-19T12:35:26;7.97;;;1.53;;
65047;SDS011;52089;51.362;-2.384;2022-12-19T12:47:50;10.75;;;1.58;;
65047;SDS011;52089;51.362;-2.384;2022-12-19T12:51:33;11.77;;;1.70;;
65047;SDS011;52089;51.362;-2.384;2022-12-19T12:59:21;11.60;;;2.27;;
65047;SDS011;52089;51.362;-2.384;2022-12-19T13:03:12;6.87;;;1.03;;
65047;SDS011;52089;51.362;-2.384;2022-12-19T13:07:02;11.00;;;1.40;;
65047;SDS011;52089;51.362;-2.384;2022-12-19T13:10:54;7.50;;;1.20;;
65047;SDS011;52089;51.362;-2.384;2022-12-19T13:14:40;6.13;;;1.00;;
65047;SDS011;52089;51.362;-2.384;2022-12-19T13:18:32;8.17;;;1.30;;
65047;SDS011;52089;51.362;-2.384;2022-12-19T13:22:17;18.15;;;3.22;;
65047;SDS011;52089;51.362;-2.384;2022-12-19T13:26:03;14.77;;;2.70;;
65047;SDS011;52089;51.362;-2.384;2022-12-19T13:42:21;20.47;;;3.07;;
65047;SDS011;52089;51.362;-2.384;2022-12-19T13:54:13;13.90;;;2.80;;
65047;SDS011;52089;51.362;-2.384;2022-12-19T13:58:02;10.63;;;2.23;;
65047;SDS011;52089;51.362;-2.384;2022-12-19T14:01:44;13.67;;;2.30;;
65047;SDS011;52089;51.362;-2.384;2022-12-19T14:05:31;12.03;;;1.40;;
65047;SDS011;52089;51.362;-2.384;2022-12-19T14:09:38;7.97;;;1.17;;
65047;SDS011;52089;51.362;-2.384;2022-12-19T14:13:52;6.32;;;1.10;;
65047;SDS011;52089;51.362;-2.384;2022-12-19T14:26:14;13.57;;;3.13;;
65047;SDS011;52089;51.362;-2.384;2022-12-19T14:30:28;16.43;;;2.57;;
65047;SDS011;52089;51.362;-2.384;2022-12-19T14:34:15;20.30;;;3.43;;
65047;SDS011;52089;51.362;-2.384;2022-12-19T14:38:22;20.30;;;2.97;;
65047;SDS011;52089;51.362;-2.384;2022-12-19T14:42:27;19.03;;;3.23;;
65047;SDS011;52089;51.362;-2.384;2022-12-19T14:46:57;21.65;;;3.28;;
65047;SDS011;52089;51.362;-2.384;2022-12-19T14:59:32;9.53;;;2.40;;
65047;SDS011;52089;51.362;-2.384;2022-12-19T15:03:20;13.80;;;1.70;;
65047;SDS011;52089;51.362;-2.384;2022-12-19T15:07:15;13.27;;;2.85;;
65047;SDS011;52089;51.362;-2.384;2022-12-19T15:11:02;14.93;;;1.90;;
65047;SDS011;52089;51.362;-2.384;2022-12-19T15:15:24;13.30;;;1.73;;
65047;SDS011;52089;51.362;-2.384;2022-12-19T15:19:21;13.70;;;2.37;;
65047;SDS011;52089;51.362;-2.384;2022-12-19T15:23:03;15.90;;;1.90;;
65047;SDS011;52089;51.362;-2.384;2022-12-19T15:26:45;12.67;;;2.20;;
65047;SDS011;52089;51.362;-2.384;2022-12-19T15:30:30;18.87;;;2.80;;
65047;SDS011;52089;51.362;-2.384;2022-12-19T15:34:26;21.77;;;3.83;;
65047;SDS011;52089;51.362;-2.384;2022-12-19T15:38:26;21.02;;;4.15;;
65047;SDS011;52089;51.362;-2.384;2022-12-19T15:42:26;31.13;;;5.27;;
65047;SDS011;52089;51.362;-2.384;2022-12-19T15:46:08;28.65;;;4.90;;
65047;SDS011;52089;51.362;-2.384;2022-12-19T15:49:52;32.67;;;7.33;;
65047;SDS011;52089;51.362;-2.384;2022-12-19T15:53:34;36.00;;;5.63;;
65047;SDS011;52089;51.362;-2.384;2022-12-19T15:57:31;30.77;;;4.47;;
65047;SDS011;52089;51.362;-2.384;2022-12-19T16:01:16;29.10;;;4.67;;
65047;SDS011;52089;51.362;-2.384;2022-12-19T16:04:58;28.80;;;4.43;;
65047;SDS011;52089;51.362;-2.384;2022-12-19T16:08:44;25.23;;;4.23;;
65047;SDS011;52089;51.362;-2.384;2022-12-19T16:12:29;18.07;;;3.07;;
65047;SDS011;52089;51.362;-2.384;2022-12-19T16:16:14;20.87;;;3.77;;
65047;SDS011;52089;51.362;-2.384;2022-12-19T16:19:56;17.67;;;2.57;;
65047;SDS011;52089;51.362;-2.384;2022-12-19T16:23:47;11.20;;;2.30;;
65047;SDS011;52089;51.362;-2.384;2022-12-19T16:27:29;11.70;;;2.70;;
65047;SDS011;52089;51.362;-2.384;2022-12-19T16:31:12;16.87;;;2.17;;
65047;SDS011;52089;51.362;-2.384;2022-12-19T16:34:56;9.93;;;2.37;;
65047;SDS011;52089;51.362;-2.384;2022-12-19T16:38:38;18.80;;;3.77;;
65047;SDS011;52089;51.362;-2.384;2022-12-19T16:42:19;13.70;;;2.47;;
65047;SDS011;52089;51.362;-2.384;2022-12-19T16:46:03;14.80;;;2.30;;
65047;SDS011;52089;51.362;-2.384;2022-12-19T16:49:47;15.10;;;2.40;;
65047;SDS011;52089;51.362;-2.384;2022-12-19T16:53:29;11.60;;;2.23;;
65047;SDS011;52089;51.362;-2.384;2022-12-19T16:57:14;13.97;;;2.13;;
65047;SDS011;52089;51.362;-2.384;2022-12-19T17:00:59;16.20;;;3.37;;
65047;SDS011;52089;51.362;-2.384;2022-12-19T17:04:41;20.30;;;3.80;;
65047;SDS011;52089;51.362;-2.384;2022-12-19T17:08:29;13.63;;;2.67;;
65047;SDS011;52089;51.362;-2.384;2022-12-19T17:12:15;14.97;;;2.37;;
65047;SDS011;52089;51.362;-2.384;2022-12-19T17:15:58;16.03;;;2.63;;
65047;SDS011;52089;51.362;-2.384;2022-12-19T17:19:42;16.90;;;2.50;;
65047;SDS011;52089;51.362;-2.384;2022-12-19T17:23:28;17.80;;;2.50;;
65047;SDS011;52089;51.362;-2.384;2022-12-19T17:27:12;14.97;;;2.83;;
65047;SDS011;52089;51.362;-2.384;2022-12-19T17:30:55;13.30;;;2.17;;
65047;SDS011;52089;51.362;-2.384;2022-12-19T17:34:39;20.57;;;3.37;;
65047;SDS011;52089;51.362;-2.384;2022-12-19T17:38:21;16.00;;;2.83;;
65047;SDS011;52089;51.362;-2.384;2022-12-19T17:42:14;11.70;;;2.30;;
65047;SDS011;52089;51.362;-2.384;2022-12-19T17:45:59;12.80;;;2.27;;
65047;SDS011;52089;51.362;-2.384;2022-12-19T17:49:45;5.97;;;1.60;;
65047;SDS011;52089;51.362;-2.384;2022-12-19T17:53:28;7.90;;;1.23;;
65047;SDS011;52089;51.362;-2.384;2022-12-19T17:57:13;4.47;;;0.70;;
65047;SDS011;52089;51.362;-2.384;2022-12-19T18:00:56;4.57;;;1.73;;
65047;SDS011;52089;51.362;-2.384;2022-12-19T18:04:38;4.97;;;1.07;;
65047;SDS011;52089;51.362;-2.384;2022-12-19T18:08:30;6.20;;;1.37;;
65047;SDS011;52089;51.362;-2.384;2022-12-19T18:12:12;3.97;;;1.00;;
65047;SDS011;52089;51.362;-2.384;2022-12-19T18:15:55;4.03;;;0.90;;
65047;SDS011;52089;51.362;-2.384;2022-12-19T18:19:40;6.10;;;1.00;;
65047;SDS011;52089;51.362;-2.384;2022-12-19T18:23:22;5.23;;;1.03;;
65047;SDS011;52089;51.362;-2.384;2022-12-19T18:27:04;3.93;;;0.63;;
65047;SDS011;52089;51.362;-2.384;2022-12-19T18:30:46;1.33;;;0.40;;
65047;SDS011;52089;51.362;-2.384;2022-12-19T18:34:29;1.83;;;0.40;;
65047;SDS011;52089;51.362;-2.384;2022-12-19T18:41:55;2.90;;;0.53;;
65047;SDS011;52089;51.362;-2.384;2022-12-19T18:45:38;3.97;;;1.17;;
65047;SDS011;52089;51.362;-2.384;2022-12-19T18:49:22;4.03;;;1.07;;
65047;SDS011;52089;51.362;-2.384;2022-12-19T18:53:14;3.03;;;1.00;;
65047;SDS011;52089;51.362;-2.384;2022-12-19T18:56:58;2.20;;;0.60;;
65047;SDS011;52089;51.362;-2.384;2022-12-19T19:00:40;2.83;;;0.80;;
65047;SDS011;52089;51.362;-2.384;2022-12-19T19:04:22;2.23;;;0.50;;
65047;SDS011;52089;51.362;-2.384;2022-12-19T19:08:10;5.43;;;0.70;;
65047;SDS011;52089;51.362;-2.384;2022-12-19T19:11:56;5.43;;;1.20;;
65047;SDS011;52089;51.362;-2.384;2022-12-19T19:15:39;5.53;;;1.30;;
65047;SDS011;52089;51.362;-2.384;2022-12-19T19:19:26;5.97;;;1.07;;
65047;SDS011;52089;51.362;-2.384;2022-12-19T19:23:09;4.03;;;0.90;;
65047;SDS011;52089;51.362;-2.384;2022-12-19T19:26:53;4.67;;;0.83;;
65047;SDS011;52089;51.362;-2.384;2022-12-19T19:30:36;4.27;;;1.03;;
65047;SDS011;52089;51.362;-2.384;2022-12-19T19:34:27;4.80;;;1.30;;
65047;SDS011;52089;51.362;-2.384;2022-12-19T19:38:12;10.10;;;1.23;;
65047;SDS011;52089;51.362;-2.384;2022-12-19T19:41:56;12.77;;;1.97;;
65047;SDS011;52089;51.362;-2.384;2022-12-19T19:45:38;12.70;;;1.97;;
65047;SDS011;52089;51.362;-2.384;2022-12-19T19:49:23;13.57;;;2.43;;
65047;SDS011;52089;51.362;-2.384;2022-12-19T19:53:05;11.53;;;1.90;;
65047;SDS011;52089;51.362;-2.384;2022-12-19T19:56:47;7.70;;;1.43;;
65047;SDS011;52089;51.362;-2.384;2022-12-19T20:00:29;15.50;;;2.97;;
65047;SDS011;52089;51.362;-2.384;2022-12-19T20:04:11;7.97;;;1.40;;
65047;SDS011;52089;51.362;-2.384;2022-12-19T20:07:52;8.23;;;1.27;;
65047;SDS011;52089;51.362;-2.384;2022-12-19T20:11:35;10.70;;;2.13;;
65047;SDS011;52089;51.362;-2.384;2022-12-19T20:15:17;8.63;;;1.47;;
65047;SDS011;52089;51.362;-2.384;2022-12-19T20:18:58;5.10;;;0.83;;
65047;SDS011;52089;51.362;-2.384;2022-12-19T20:22:40;4.37;;;1.00;;
65047;SDS011;52089;51.362;-2.384;2022-12-19T20:26:23;4.37;;;0.80;;
65047;SDS011;52089;51.362;-2.384;2022-12-19T20:30:05;2.87;;;0.63;;
65047;SDS011;52089;51.362;-2.384;2022-12-19T20:33:47;3.60;;;0.90;;
65047;SDS011;52089;51.362;-2.384;2022-12-19T20:37:29;4.57;;;0.70;;
65047;SDS011;52089;51.362;-2.384;2022-12-19T20:41:13;5.20;;;0.90;;
65047;SDS011;52089;51.362;-2.384;2022-12-19T20:44:55;5.40;;;0.90;;
65047;SDS011;52089;51.362;-2.384;2022-12-19T20:48:37;4.57;;;0.80;;
65047;SDS011;52089;51.362;-2.384;2022-12-19T20:52:19;4.90;;;0.60;;
65047;SDS011;52089;51.362;-2.384;2022-12-19T20:56:02;5.73;;;0.70;;
65047;SDS011;52089;51.362;-2.384;2022-12-19T20:59:45;3.37;;;0.60;;
65047;SDS011;52089;51.362;-2.384;2022-12-19T21:03:27;2.13;;;0.47;;
65047;SDS011;52089;51.362;-2.384;2022-12-19T21:07:10;6.87;;;1.93;;
65047;SDS011;52089;51.362;-2.384;2022-12-19T21:10:52;6.60;;;0.90;;
65047;SDS011;52089;51.362;-2.384;2022-12-19T21:14:34;6.57;;;0.90;;
65047;SDS011;52089;51.362;-2.384;2022-12-19T21:18:16;6.07;;;0.80;;
65047;SDS011;52089;51.362;-2.384;2022-12-19T21:21:58;11.27;;;1.10;;
65047;SDS011;52089;51.362;-2.384;2022-12-19T21:25:40;7.30;;;1.60;;
65047;SDS011;52089;51.362;-2.384;2022-12-19T21:29:22;10.53;;;1.20;;
65047;SDS011;52089;51.362;-2.384;2022-12-19T21:33:04;8.53;;;1.23;;
65047;SDS011;52089;51.362;-2.384;2022-12-19T21:36:45;8.33;;;0.90;;
65047;SDS011;52089;51.362;-2.384;2022-12-19T21:40:27;7.73;;;0.93;;
65047;SDS011;52089;51.362;-2.384;2022-12-19T21:44:09;4.13;;;0.63;;
65047;SDS011;52089;51.362;-2.384;2022-12-19T21:47:51;5.63;;;0.90;;
65047;SDS011;52089;51.362;-2.384;2022-12-19T21:51:33;4.53;;;0.83;;
65047;SDS011;52089;51.362;-2.384;2022-12-19T21:55:15;5.67;;;0.70;;
65047;SDS011;52089;51.362;-2.384;2022-12-19T21:58:57;9.43;;;1.23;;
65047;SDS011;52089;51.362;-2.384;2022-12-19T22:02:44;6.20;;;1.00;;
65047;SDS011;52089;51.362;-2.384;2022-12-19T22:06:47;10.20;;;1.27;;
65047;SDS011;52089;51.362;-2.384;2022-12-19T22:10:31;12.27;;;1.77;;
65047;SDS011;52089;51.362;-2.384;2022-12-19T22:14:13;12.30;;;1.93;;
65047;SDS011;52089;51.362;-2.384;2022-12-19T22:17:56;12.03;;;1.33;;
65047;SDS011;52089;51.362;-2.384;2022-12-19T22:21:38;12.27;;;1.43;;
65047;SDS011;52089;51.362;-2.384;2022-12-19T22:25:20;9.43;;;1.97;;
65047;SDS011;52089;51.362;-2.384;2022-12-19T22:29:05;8.80;;;1.23;;
65047;SDS011;52089;51.362;-2.384;2022-12-19T22:32:48;10.20;;;0.97;;
65047;SDS011;52089;51.362;-2.384;2022-12-19T22:36:30;6.30;;;1.10;;
65047;SDS011;52089;51.362;-2.384;2022-12-19T22:40:14;8.17;;;0.83;;
65047;SDS011;52089;51.362;-2.384;2022-12-19T22:43:55;11.10;;;1.70;;
65047;SDS011;52089;51.362;-2.384;2022-12-19T22:47:39;8.47;;;1.20;;
65047;SDS011;52089;51.362;-2.384;2022-12-19T22:51:22;10.07;;;1.33;;
65047;SDS011;52089;51.362;-2.384;2022-12-19T22:55:04;12.00;;;1.20;;
65047;SDS011;52089;51.362;-2.384;2022-12-19T22:58:47;11.07;;;1.20;;
65047;SDS011;52089;51.362;-2.384;2022-12-19T23:02:31;5.53;;;1.07;;
65047;SDS011;52089;51.362;-2.384;2022-12-19T23:06:13;12.30;;;1.40;;
65047;SDS011;52089;51.362;-2.384;2022-12-19T23:09:56;6.90;;;1.10;;
65047;SDS011;52089;51.362;-2.384;2022-12-19T23:13:38;7.43;;;1.40;;
65047;SDS011;52089;51.362;-2.384;2022-12-19T23:17:21;11.17;;;1.30;;
65047;SDS011;52089;51.362;-2.384;2022-12-19T23:21:10;7.27;;;1.27;;
65047;SDS011;52089;51.362;-2.384;2022-12-19T23:24:57;7.97;;;1.00;;
65047;SDS011;52089;51.362;-2.384;2022-12-19T23:28:40;10.03;;;1.20;;
65047;SDS011;52089;51.362;-2.384;2022-12-19T23:32:22;14.50;;;1.97;;
65047;SDS011;52089;51.362;-2.384;2022-12-19T23:36:04;8.83;;;1.10;;
65047;SDS011;52089;51.362;-2.384;2022-12-19T23:39:46;11.77;;;1.43;;
65047;SDS011;52089;51.362;-2.384;2022-12-19T23:43:28;8.50;;;1.20;;
65047;SDS011;52089;51.362;-2.384;2022-12-19T23:47:12;10.47;;;1.60;;
65047;SDS011;52089;51.362;-2.384;2022-12-19T23:50:58;9.60;;;1.30;;
65047;SDS011;52089;51.362;-2.384;2022-12-19T23:54:42;8.30;;;1.20;;
65047;SDS011;52089;51.362;-2.384;2022-12-19T23:58:25;9.43;;;1.00;;
